Time;durP1;ratioP1;P1;durP2;ratioP2;P2;SDS_P1;SDS_P2;PMS_P1;PMS_P2;Temp;Humidity;BMP_temperature;BMP_pressure;BME280_temperature;BME280_humidity;BME280_pressure;Samples;Min_cycle;Max_cycle;Signal;HPM_P1;HPM_P2
2022/10/31 00:01:36;;;;;;;8.90;3.33;;;;;;;13.37;64.51;95296.38;5044594;28;20309;-80
2022/10/31 00:04:02;;;;;;;4.97;3.37;;;;;;;13.28;64.58;95275.72;5039104;28;20214;-80
2022/10/31 00:06:28;;;;;;;8.67;4.00;;;;;;;13.55;64.40;95322.88;5043763;28;20309;-80
2022/10/31 00:08:59;;;;;;;6.27;2.87;;;;;;;13.34;64.86;95307.38;5045516;28;20262;-81
2022/10/31 00:11:24;;;;;;;6.50;3.27;;;;;;;13.23;65.82;95323.97;5043468;28;20221;-80
2022/10/31 00:13:50;;;;;;;7.73;3.20;;;;;;;13.20;65.74;95319.09;5037712;28;20647;-80
2022/10/31 00:16:18;;;;;;;4.93;3.23;;;;;;;13.12;66.14;95316.69;5045425;28;20257;-80
2022/10/31 00:18:44;;;;;;;5.53;3.00;;;;;;;13.18;65.96;95315.84;5043009;28;20268;-80
2022/10/31 00:21:09;;;;;;;8.57;4.23;;;;;;;13.25;65.77;95324.53;5042173;28;20659;-80
2022/10/31 00:23:34;;;;;;;9.40;3.83;;;;;;;13.24;65.98;95317.63;5041930;28;20195;-80
2022/10/31 00:26:02;;;;;;;7.33;3.17;;;;;;;13.23;65.91;95313.38;5034245;28;20654;-80
2022/10/31 00:28:27;;;;;;;4.53;3.10;;;;;;;13.17;65.98;95285.97;5032625;28;20234;-80
2022/10/31 00:30:52;;;;;;;7.60;3.47;;;;;;;13.27;65.85;95303.97;5033974;28;20160;-80
2022/10/31 00:33:18;;;;;;;6.43;3.10;;;;;;;13.26;66.14;95306.84;5015540;28;20643;-80
2022/10/31 00:35:49;;;;;;;9.23;3.37;;;;;;;12.94;66.88;95288.34;5033738;28;20166;-80
2022/10/31 00:38:15;;;;;;;5.93;3.20;;;;;;;13.02;67.22;95308.41;5046267;28;20183;-80
2022/10/31 00:40:40;;;;;;;9.30;3.40;;;;;;;13.01;67.29;95315.53;5044888;28;20220;-80
2022/10/31 00:43:05;;;;;;;6.83;3.60;;;;;;;12.79;67.62;95283.38;5041925;28;20744;-80
2022/10/31 00:45:31;;;;;;;6.83;3.83;;;;;;;12.96;67.75;95304.00;5041633;28;20176;-80
2022/10/31 00:47:56;;;;;;;7.80;3.43;;;;;;;12.92;67.89;95303.59;5042387;28;20196;-80
2022/10/31 00:50:21;;;;;;;7.53;4.00;;;;;;;13.00;67.53;95303.34;5040891;28;20257;-80
2022/10/31 00:52:47;;;;;;;6.77;3.67;;;;;;;13.00;67.76;95300.69;5033101;28;20167;-79
2022/10/31 00:55:12;;;;;;;6.37;3.30;;;;;;;12.94;67.64;95295.47;5040280;28;20247;-79
2022/10/31 00:57:38;;;;;;;5.33;3.10;;;;;;;12.91;67.78;95291.41;5041549;28;20175;-79
2022/10/31 01:00:04;;;;;;;5.93;3.03;;;;;;;13.04;67.41;95311.66;5041550;28;20701;-79
2022/10/31 01:02:29;;;;;;;8.03;3.10;;;;;;;13.05;67.78;95306.16;5044481;28;20592;-79
2022/10/31 01:04:55;;;;;;;6.43;3.20;;;;;;;13.12;67.48;95319.34;5044676;28;20242;-79
2022/10/31 01:07:20;;;;;;;6.00;3.07;;;;;;;12.97;67.70;95281.84;5035812;28;20567;-79
2022/10/31 01:09:45;;;;;;;7.97;3.70;;;;;;;12.91;67.60;95264.19;5044757;28;20254;-79
2022/10/31 01:12:11;;;;;;;5.87;3.20;;;;;;;13.21;67.37;95315.44;5044585;28;20175;-79
2022/10/31 01:14:36;;;;;;;6.33;3.37;;;;;;;13.19;67.33;95318.28;5052768;28;20700;-79
2022/10/31 01:17:02;;;;;;;9.13;3.97;;;;;;;13.19;67.59;95320.94;5044396;28;20179;-79
2022/10/31 01:19:27;;;;;;;6.13;3.57;;;;;;;13.18;67.35;95326.41;5044540;28;20186;-79
2022/10/31 01:21:56;;;;;;;4.77;2.90;;;;;;;13.11;67.78;95317.72;5044282;28;20209;-79
2022/10/31 01:24:21;;;;;;;7.40;3.67;;;;;;;12.95;68.15;95316.41;5044113;28;20214;-79
2022/10/31 01:26:47;;;;;;;8.13;3.40;;;;;;;12.65;68.37;95265.16;5052565;28;20649;-79
2022/10/31 01:29:12;;;;;;;11.40;4.10;;;;;;;12.94;68.28;95313.97;5044526;28;20177;-78
2022/10/31 01:31:39;;;;;;;5.87;3.13;;;;;;;13.02;68.49;95319.81;5042558;28;20694;-78
2022/10/31 01:34:06;;;;;;;10.90;3.40;;;;;;;12.98;68.85;95310.66;5040781;28;20191;-79
2022/10/31 01:36:34;;;;;;;5.10;3.17;;;;;;;13.08;68.92;95318.13;5041269;28;20225;-79
2022/10/31 01:39:05;;;;;;;7.80;3.30;;;;;;;13.23;69.01;95319.47;5040924;28;20171;-79
2022/10/31 01:41:35;;;;;;;9.03;3.60;;;;;;;13.28;68.88;95316.19;5040068;28;20245;-79
2022/10/31 01:44:03;;;;;;;7.93;3.50;;;;;;;13.35;68.98;95321.41;5040886;28;20634;-79
2022/10/31 01:46:36;;;;;;;11.70;4.10;;;;;;;13.48;68.83;95331.88;5040511;28;20263;-79
2022/10/31 01:49:09;;;;;;;8.20;3.73;;;;;;;13.20;68.89;95282.91;5049020;28;20677;-80
2022/10/31 01:51:38;;;;;;;6.67;3.73;;;;;;;13.24;68.95;95283.25;5045649;28;20246;-79
2022/10/31 01:54:12;;;;;;;7.73;3.80;;;;;;;13.67;68.76;95328.22;5052045;28;20274;-79
2022/10/31 01:56:42;;;;;;;8.57;4.17;;;;;;;13.77;68.21;95325.91;5043877;28;20256;-79
2022/10/31 01:59:12;;;;;;;7.13;3.90;;;;;;;13.87;68.33;95333.34;5041157;28;20194;-79
2022/10/31 02:01:38;;;;;;;10.07;4.10;;;;;;;13.83;68.07;95316.31;5040602;28;20163;-79
2022/10/31 02:04:04;;;;;;;10.60;3.87;;;;;;;13.92;68.12;95318.41;5049614;28;20197;-79
2022/10/31 02:06:43;;;;;;;6.90;4.23;;;;;;;14.02;68.09;95320.56;5052228;28;20194;-79
2022/10/31 02:09:08;;;;;;;18.60;4.40;;;;;;;13.98;68.23;95322.84;5036436;28;20258;-80
2022/10/31 02:11:35;;;;;;;6.53;3.90;;;;;;;14.01;68.36;95312.84;5043784;28;20257;-79
2022/10/31 02:14:02;;;;;;;7.37;4.03;;;;;;;13.86;69.04;95302.59;5043498;28;20603;-79
2022/10/31 02:16:28;;;;;;;6.10;3.90;;;;;;;13.79;69.20;95310.63;5040443;28;20180;-78
2022/10/31 02:18:54;;;;;;;7.17;4.07;;;;;;;13.88;69.14;95308.50;5040384;28;20182;-78
2022/10/31 02:21:28;;;;;;;11.17;4.20;;;;;;;13.98;68.78;95312.25;5041428;28;20184;-80
2022/10/31 02:24:12;;;;;;;7.80;3.90;;;;;;;14.08;68.35;95316.22;5043816;28;20201;-78
2022/10/31 02:26:43;;;;;;;5.90;3.93;;;;;;;14.11;68.39;95321.06;5040586;28;20175;-78
2022/10/31 02:29:27;;;;;;;6.57;3.90;;;;;;;14.15;68.77;95325.72;5047942;28;20642;-79
2022/10/31 02:32:31;;;;;;;7.90;4.30;;;;;;;14.19;68.16;95331.38;5047744;28;20187;-79
2022/10/31 02:35:14;;;;;;;5.70;3.43;;;;;;;14.24;68.32;95334.97;5042347;28;20172;-79
2022/10/31 02:37:53;;;;;;;7.73;3.63;;;;;;;14.32;68.42;95339.97;5043899;28;20167;-79
2022/10/31 02:40:39;;;;;;;6.20;3.80;;;;;;;14.26;68.01;95319.69;5042882;28;20175;-80
2022/10/31 02:43:10;;;;;;;5.33;3.77;;;;;;;14.42;67.73;95336.84;5043952;28;20226;-78
2022/10/31 02:45:45;;;;;;;9.05;3.72;;;;;;;14.23;67.68;95311.38;5035952;28;20179;-79
2022/10/31 02:48:16;;;;;;;7.30;3.80;;;;;;;14.45;67.56;95338.22;5031734;28;20533;-79
2022/10/31 02:50:50;;;;;;;13.43;5.13;;;;;;;14.56;66.94;95340.13;5043344;28;20202;-79
2022/10/31 02:53:16;;;;;;;10.87;3.80;;;;;;;14.57;66.73;95336.44;5049794;28;20560;-79
2022/10/31 02:55:51;;;;;;;7.77;4.00;;;;;;;14.59;66.79;95348.44;5046057;28;20248;-79
2022/10/31 02:58:22;;;;;;;6.93;4.37;;;;;;;14.63;66.64;95360.19;5045535;28;20173;-78
2022/10/31 03:01:09;;;;;;;8.75;3.97;;;;;;;14.57;66.58;95350.50;5050729;28;20248;-80
2022/10/31 03:04:03;;;;;;;12.80;4.82;;;;;;;14.49;66.60;95334.91;5055184;28;20586;-80
2022/10/31 03:06:34;;;;;;;9.60;4.17;;;;;;;14.65;66.45;95350.19;5055576;28;20186;-79
2022/10/31 03:09:12;;;;;;;5.38;3.65;;;;;;;14.61;66.76;95357.00;5045435;28;20179;-79
2022/10/31 03:12:29;;;;;;;6.83;4.83;;;;;;;14.51;67.19;95340.00;5044407;28;20313;-79
2022/10/31 03:15:19;;;;;;;11.57;6.72;;;;;;;14.59;67.48;95356.41;4954652;29;20182;-79
2022/10/31 03:17:57;;;;;;;14.00;5.63;;;;;;;14.43;67.38;95348.25;5051718;28;20635;-79
2022/10/31 03:20:31;;;;;;;9.87;6.40;;;;;;;14.41;68.24;95352.94;5046948;28;20702;-79
2022/10/31 03:22:58;;;;;;;12.18;4.80;;;;;;;14.21;68.78;95342.56;5046837;28;20163;-80
2022/10/31 03:25:25;;;;;;;9.47;4.80;;;;;;;14.09;68.94;95336.38;5039159;28;20666;-79
2022/10/31 03:27:52;;;;;;;7.70;4.77;;;;;;;14.13;69.08;95348.13;5045189;28;20175;-80
2022/10/31 03:30:17;;;;;;;11.27;5.40;;;;;;;14.13;69.98;95356.91;5046553;28;20197;-80
2022/10/31 03:32:49;;;;;;;9.13;5.38;;;;;;;13.70;69.90;95290.78;5041344;28;20693;-82
2022/10/31 03:35:18;;;;;;;8.47;5.07;;;;;;;13.93;70.04;95348.34;5046589;28;20175;-80
2022/10/31 03:37:46;;;;;;;12.30;5.43;;;;;;;13.98;70.53;95375.78;5041110;28;21077;-80
2022/10/31 03:40:15;;;;;;;14.37;5.67;;;;;;;13.84;70.77;95365.53;5041035;28;20171;-80
2022/10/31 03:42:46;;;;;;;17.33;5.93;;;;;;;13.52;71.11;95333.06;5046035;28;20716;-80
2022/10/31 03:45:16;;;;;;;10.53;4.63;;;;;;;13.74;70.87;95379.28;5041529;28;20577;-80
2022/10/31 03:47:43;;;;;;;11.67;4.87;;;;;;;13.66;71.23;95381.38;5041811;28;20555;-79
2022/10/31 03:50:12;;;;;;;7.10;4.60;;;;;;;13.48;71.44;95363.63;5038548;28;20203;-80
2022/10/31 03:52:53;;;;;;;7.10;4.70;;;;;;;13.54;71.34;95379.44;5042652;28;20171;-80
2022/10/31 03:55:34;;;;;;;7.80;4.77;;;;;;;13.52;70.91;95386.78;5045190;28;20203;-80
2022/10/31 03:58:10;;;;;;;10.73;5.30;;;;;;;13.44;71.41;95383.59;5045716;28;20195;-80
2022/10/31 04:00:41;;;;;;;11.67;6.13;;;;;;;13.34;71.75;95394.63;5042564;28;20231;-80
2022/10/31 04:03:18;;;;;;;11.70;5.53;;;;;;;13.24;71.93;95396.94;5046576;28;20292;-79
2022/10/31 04:05:47;;;;;;;16.73;7.50;;;;;;;13.07;72.27;95386.03;5045673;28;20163;-80
2022/10/31 04:08:17;;;;;;;18.17;10.53;;;;;;;13.04;72.39;95385.66;5053533;28;20198;-80
2022/10/31 04:10:45;;;;;;;21.77;10.20;;;;;;;13.04;72.81;95394.41;5042416;28;20163;-79
2022/10/31 04:13:16;;;;;;;19.60;10.20;;;;;;;12.57;73.45;95324.34;5042543;28;20180;-79
2022/10/31 04:15:43;;;;;;;25.77;11.60;;;;;;;12.85;73.71;95385.56;5045556;28;20210;-79
2022/10/31 04:18:08;;;;;;;18.00;8.80;;;;;;;12.90;74.05;95402.59;5043881;28;20183;-79
2022/10/31 04:20:37;;;;;;;20.90;11.70;;;;;;;12.88;74.34;95397.56;5041350;28;20175;-79
2022/10/31 04:23:04;;;;;;;23.40;11.30;;;;;;;12.87;74.07;95390.66;5043861;28;20192;-79
2022/10/31 04:25:29;;;;;;;23.33;11.37;;;;;;;12.85;74.61;95393.50;5041009;28;20168;-79
2022/10/31 04:27:55;;;;;;;16.73;10.03;;;;;;;12.80;74.36;95388.00;5049146;28;20175;-81
2022/10/31 04:30:21;;;;;;;22.47;10.63;;;;;;;12.58;74.55;95351.56;5043833;28;20175;-81
2022/10/31 04:32:46;;;;;;;21.63;10.60;;;;;;;12.89;74.72;95398.34;5036554;28;20167;-81
2022/10/31 04:35:11;;;;;;;18.17;11.00;;;;;;;12.78;74.63;95376.06;5040155;28;20176;-81
2022/10/31 04:37:37;;;;;;;33.10;11.63;;;;;;;12.66;74.63;95356.59;5033940;28;20160;-81
2022/10/31 04:40:03;;;;;;;27.27;14.03;;;;;;;12.89;74.60;95390.41;5042415;28;20694;-81
2022/10/31 04:42:30;;;;;;;34.70;13.70;;;;;;;12.90;74.68;95400.78;5053059;28;20705;-81
2022/10/31 04:44:55;;;;;;;31.83;17.33;;;;;;;12.85;74.65;95400.59;5026557;28;20216;-81
2022/10/31 04:47:20;;;;;;;33.10;16.00;;;;;;;12.52;74.74;95347.94;5041499;28;20199;-81
2022/10/31 04:49:46;;;;;;;35.80;19.33;;;;;;;12.75;74.86;95389.69;5034501;28;20175;-81
2022/10/31 04:52:12;;;;;;;36.17;18.37;;;;;;;12.85;74.91;95403.25;5037147;28;20176;-81
2022/10/31 04:54:37;;;;;;;57.97;21.17;;;;;;;12.78;75.14;95399.84;5048468;28;20650;-81
2022/10/31 04:57:03;;;;;;;37.23;21.03;;;;;;;12.80;75.30;95413.63;5036009;28;20186;-80
2022/10/31 04:59:28;;;;;;;41.67;21.10;;;;;;;12.73;75.50;95399.63;5042791;28;20638;-81
2022/10/31 05:01:54;;;;;;;36.77;18.23;;;;;;;12.75;75.52;95409.00;5050054;28;20213;-81
2022/10/31 05:04:19;;;;;;;40.43;19.37;;;;;;;12.74;75.24;95403.91;5044452;28;20194;-81
2022/10/31 05:06:45;;;;;;;31.20;17.27;;;;;;;12.60;74.84;95387.31;5053240;28;20159;-81
2022/10/31 05:09:10;;;;;;;28.00;15.63;;;;;;;12.81;75.49;95416.06;5052967;28;20148;-81
2022/10/31 05:11:35;;;;;;;39.97;17.97;;;;;;;12.80;75.58;95435.56;5048892;28;20195;-81
2022/10/31 05:14:01;;;;;;;47.53;24.10;;;;;;;12.75;75.49;95427.47;5051485;28;20228;-81
2022/10/31 05:16:26;;;;;;;46.13;22.30;;;;;;;12.10;75.07;95330.84;5052393;28;20175;-82
2022/10/31 05:18:51;;;;;;;53.10;27.57;;;;;;;12.18;75.07;95348.28;5047365;28;20210;-82
2022/10/31 05:21:17;;;;;;;77.37;38.10;;;;;;;12.46;76.35;95412.94;5042323;28;20179;-82
2022/10/31 05:23:42;;;;;;;43.73;22.23;;;;;;;12.59;76.69;95435.88;5049277;28;20202;-80
2022/10/31 05:26:07;;;;;;;38.67;20.10;;;;;;;12.29;76.36;95376.66;5045859;28;20203;-80
2022/10/31 05:28:33;;;;;;;47.30;21.60;;;;;;;12.59;76.09;95429.78;5052058;28;20175;-80
2022/10/31 05:30:58;;;;;;;52.50;27.77;;;;;;;12.08;76.50;95369.84;5052346;28;20722;-80
2022/10/31 05:33:24;;;;;;;45.37;25.60;;;;;;;12.19;76.83;95400.06;5045661;28;20182;-80
2022/10/31 05:35:49;;;;;;;46.50;24.20;;;;;;;11.88;77.22;95347.94;5051567;28;20163;-80
2022/10/31 05:38:15;;;;;;;44.23;24.30;;;;;;;12.23;76.70;95409.97;5052073;28;20174;-80
2022/10/31 05:40:40;;;;;;;43.07;21.80;;;;;;;12.44;76.87;95454.63;5044018;28;20558;-81
2022/10/31 05:43:05;;;;;;;49.30;23.47;;;;;;;12.35;76.69;95437.38;5052635;28;20268;-81
2022/10/31 05:45:31;;;;;;;46.23;23.77;;;;;;;12.47;76.73;95454.19;5039397;28;20265;-81
2022/10/31 05:47:58;;;;;;;46.47;22.83;;;;;;;12.64;76.66;95451.09;5043702;28;20670;-82
2022/10/31 05:50:25;;;;;;;42.80;21.23;;;;;;;12.81;76.12;95446.97;5043987;28;20613;-81
2022/10/31 05:53:04;;;;;;;49.07;23.70;;;;;;;12.78;75.22;95413.88;5042452;28;20179;-82
2022/10/31 05:55:30;;;;;;;48.87;25.20;;;;;;;13.23;74.45;95450.88;5040451;28;20194;-82
2022/10/31 05:57:56;;;;;;;45.63;23.50;;;;;;;13.49;73.67;95458.63;5040507;28;20181;-82
2022/10/31 06:00:23;;;;;;;57.73;23.07;;;;;;;13.99;72.03;95461.31;5036825;28;20163;-82
2022/10/31 06:02:49;;;;;;;51.13;22.97;;;;;;;14.65;70.03;95456.19;5043457;28;20254;-82
2022/10/31 06:05:16;;;;;;;43.77;22.83;;;;;;;15.36;67.42;95465.31;5040572;28;20726;-81
2022/10/31 06:07:41;;;;;;;43.57;21.37;;;;;;;15.83;64.87;95474.25;5032086;28;20180;-83
2022/10/31 06:10:08;;;;;;;47.15;23.77;;;;;;;16.40;63.12;95480.66;5032137;28;20166;-82
2022/10/31 06:12:37;;;;;;;46.13;25.67;;;;;;;16.99;61.32;95484.09;5032168;28;20718;-82
2022/10/31 06:15:07;;;;;;;59.20;24.98;;;;;;;17.37;59.03;95453.44;5032423;28;20640;-83
2022/10/31 06:17:34;;;;;;;52.92;26.10;;;;;;;17.99;57.80;95486.22;5032284;28;20190;-84
2022/10/31 06:19:59;;;;;;;58.10;25.05;;;;;;;18.63;55.90;95468.88;5030848;28;20199;-83
2022/10/31 06:22:25;;;;;;;34.70;19.25;;;;;;;19.08;53.43;95425.97;5040731;28;20250;-84
2022/10/31 06:24:51;;;;;;;32.65;17.40;;;;;;;19.94;51.36;95471.47;5045980;28;20292;-84
2022/10/31 06:27:16;;;;;;;22.92;10.70;;;;;;;20.16;50.53;95460.66;5043654;28;20187;-84
2022/10/31 06:29:42;;;;;;;19.23;10.05;;;;;;;20.31;49.99;95464.28;5052325;28;20172;-84
2022/10/31 06:32:11;;;;;;;12.13;6.68;;;;;;;20.44;48.87;95492.47;5035792;28;20239;-84
2022/10/31 06:34:36;;;;;;;19.73;9.70;;;;;;;21.20;48.46;95500.19;5035502;28;20152;-83
2022/10/31 06:37:02;;;;;;;14.32;8.05;;;;;;;22.13;46.45;95474.19;5034261;28;20176;-84
2022/10/31 06:39:27;;;;;;;12.18;6.80;;;;;;;22.95;43.70;95483.78;5035265;28;20222;-84
2022/10/31 06:41:53;;;;;;;12.82;7.15;;;;;;;23.31;42.42;95495.22;5039262;28;20211;-84
2022/10/31 06:44:18;;;;;;;12.55;6.97;;;;;;;23.70;42.02;95504.19;5047920;28;20199;-84
2022/10/31 06:46:47;;;;;;;11.45;7.20;;;;;;;24.93;39.81;95515.69;5042097;28;20218;-84
2022/10/31 06:49:13;;;;;;;17.98;8.05;;;;;;;26.35;36.73;95521.25;5034897;28;20168;-84
2022/10/31 06:51:38;;;;;;;15.15;7.90;;;;;;;27.88;35.27;95514.69;5051932;28;20171;-84
2022/10/31 06:54:04;;;;;;;16.45;7.93;;;;;;;29.01;32.08;95474.59;5055059;28;20151;-82
2022/10/31 06:56:29;;;;;;;17.75;8.57;;;;;;;30.25;29.79;95501.47;5054661;28;20689;-83
2022/10/31 06:58:54;;;;;;;19.73;9.23;;;;;;;31.04;28.32;95473.88;5054985;28;20163;-81
2022/10/31 07:01:20;;;;;;;14.93;8.30;;;;;;;31.79;26.02;95492.13;5053552;28;20170;-83
2022/10/31 07:03:45;;;;;;;20.77;8.57;;;;;;;32.57;25.02;95514.19;5054522;28;20584;-83
2022/10/31 07:06:10;;;;;;;16.85;8.40;;;;;;;33.01;24.92;95502.88;5054911;28;20187;-84
2022/10/31 07:08:36;;;;;;;18.42;9.07;;;;;;;33.48;23.67;95498.63;5054629;28;20189;-83
2022/10/31 07:11:03;;;;;;;14.30;8.57;;;;;;;33.60;23.12;95486.91;5054502;28;20171;-84
2022/10/31 07:13:28;;;;;;;12.48;8.60;;;;;;;33.83;23.05;95485.34;5054835;28;20158;-82
2022/10/31 07:16:06;;;;;;;15.95;9.18;;;;;;;33.92;23.30;95532.47;5054474;28;20159;-81
2022/10/31 07:18:32;;;;;;;14.80;8.85;;;;;;;33.63;23.32;95516.28;5054957;28;20159;-81
2022/10/31 07:20:57;;;;;;;17.80;8.52;;;;;;;32.95;23.58;95494.13;5054201;28;20203;-84
2022/10/31 07:23:23;;;;;;;18.80;8.25;;;;;;;31.98;24.55;95486.25;5053436;28;20199;-83
2022/10/31 07:25:48;;;;;;;13.23;8.23;;;;;;;30.69;25.96;95465.00;5052739;28;20179;-82
2022/10/31 07:28:15;;;;;;;17.90;9.20;;;;;;;29.79;28.04;95466.72;5043262;28;20186;-82
2022/10/31 07:30:40;;;;;;;15.50;9.40;;;;;;;28.66;28.83;95419.38;5033065;28;20176;-82
2022/10/31 07:33:06;;;;;;;13.75;8.75;;;;;;;28.61;30.59;95472.94;5032352;28;20178;-82
2022/10/31 07:35:32;;;;;;;19.40;10.05;;;;;;;28.15;31.93;95495.66;5031581;28;20758;-82
2022/10/31 07:38:07;;;;;;;22.45;10.45;;;;;;;27.33;32.53;95450.56;5032057;28;20643;-82
2022/10/31 07:40:32;;;;;;;13.82;8.75;;;;;;;27.07;32.84;95492.72;5031332;28;20694;-82
2022/10/31 07:42:57;;;;;;;16.48;9.32;;;;;;;26.67;34.11;95491.53;5037996;28;20365;-82
2022/10/31 07:45:23;;;;;;;15.77;9.45;;;;;;;25.91;35.79;95417.97;5052515;28;20186;-82
2022/10/31 07:47:50;;;;;;;18.08;9.10;;;;;;;26.07;35.52;95483.31;5052462;28;20214;-82
2022/10/31 07:50:18;;;;;;;19.38;9.18;;;;;;;25.84;36.90;95473.41;5037163;28;20172;-82
2022/10/31 07:52:44;;;;;;;15.38;7.68;;;;;;;25.47;36.88;95423.69;5032600;28;20187;-81
2022/10/31 07:55:10;;;;;;;12.43;8.10;;;;;;;25.75;37.02;95478.66;5032253;28;20606;-81
2022/10/31 07:57:39;;;;;;;18.90;7.68;;;;;;;25.57;37.98;95482.09;5032265;28;20227;-81
2022/10/31 08:00:06;;;;;;;25.20;10.23;;;;;;;25.43;37.77;95484.69;5037285;28;20186;-81
2022/10/31 08:02:32;;;;;;;20.05;9.93;;;;;;;25.18;37.71;95448.06;5052220;28;20256;-81
2022/10/31 08:04:59;;;;;;;14.43;9.52;;;;;;;24.98;38.19;95431.34;5041456;28;20226;-82
2022/10/31 08:07:25;;;;;;;22.80;9.43;;;;;;;25.25;38.30;95485.47;5041708;28;20729;-81
2022/10/31 08:09:50;;;;;;;18.83;9.38;;;;;;;25.03;37.79;95482.47;5043556;28;20183;-81
2022/10/31 08:12:16;;;;;;;17.38;8.70;;;;;;;24.96;38.11;95469.34;5044312;28;20175;-80
2022/10/31 08:14:41;;;;;;;22.75;8.45;;;;;;;24.99;38.37;95484.13;5037167;28;20172;-80
2022/10/31 08:17:07;;;;;;;12.60;8.98;;;;;;;25.06;38.04;95482.72;5041872;28;20254;-80
2022/10/31 08:19:32;;;;;;;16.50;9.20;;;;;;;25.08;38.69;95483.19;5041553;28;20164;-81
2022/10/31 08:21:58;;;;;;;18.75;8.93;;;;;;;25.10;39.23;95494.50;5037586;28;20701;-81
2022/10/31 08:24:24;;;;;;;16.02;9.60;;;;;;;25.04;39.45;95474.09;5040654;28;20187;-81
2022/10/31 08:26:49;;;;;;;15.70;9.00;;;;;;;24.83;38.65;95443.84;5049637;28;20189;-80
2022/10/31 08:29:14;;;;;;;12.30;8.13;;;;;;;25.05;38.55;95469.50;5041942;28;20280;-79
2022/10/31 08:31:41;;;;;;;18.70;8.43;;;;;;;25.07;39.10;95488.91;5041820;28;20184;-81
2022/10/31 08:34:06;;;;;;;15.48;7.60;;;;;;;24.90;39.45;95454.28;5042729;28;20566;-81
2022/10/31 08:36:33;;;;;;;15.98;7.95;;;;;;;24.97;38.92;95462.06;5048978;28;20179;-80
2022/10/31 08:38:58;;;;;;;16.45;7.75;;;;;;;24.96;39.06;95455.88;5040845;28;20171;-81
2022/10/31 08:41:23;;;;;;;11.45;7.40;;;;;;;24.80;39.26;95440.94;5042126;28;20749;-81
2022/10/31 08:43:49;;;;;;;14.30;7.10;;;;;;;24.83;39.53;95459.19;5039270;28;20191;-79
2022/10/31 08:46:15;;;;;;;14.52;8.07;;;;;;;24.80;40.35;95436.34;5035293;28;20716;-80
2022/10/31 08:48:40;;;;;;;10.80;7.30;;;;;;;25.07;39.91;95461.94;5047047;28;20198;-79
2022/10/31 08:51:06;;;;;;;18.00;7.70;;;;;;;25.16;39.51;95477.22;5041123;28;20238;-79
2022/10/31 08:53:31;;;;;;;21.13;7.80;;;;;;;25.08;39.94;95464.34;5042802;28;20225;-79
2022/10/31 08:55:57;;;;;;;15.52;7.03;;;;;;;25.28;39.61;95478.69;5041809;28;20171;-79
2022/10/31 08:58:23;;;;;;;12.55;6.82;;;;;;;25.38;39.66;95475.84;5049547;28;20225;-79
2022/10/31 09:00:54;;;;;;;16.67;7.32;;;;;;;25.25;39.37;95450.41;5043456;28;20186;-80
2022/10/31 09:03:28;;;;;;;14.38;6.78;;;;;;;25.21;39.24;95478.22;5035625;28;20182;-79
2022/10/31 09:05:59;;;;;;;14.45;7.40;;;;;;;25.14;39.87;95476.69;5044643;28;20183;-80
2022/10/31 09:08:25;;;;;;;19.88;7.35;;;;;;;25.03;40.35;95471.69;5043801;28;20168;-79
2022/10/31 09:10:51;;;;;;;11.15;6.60;;;;;;;25.01;40.58;95463.88;5043856;28;20198;-78
2022/10/31 09:13:19;;;;;;;16.65;7.18;;;;;;;25.08;40.37;95482.44;5052159;28;20167;-80
2022/10/31 09:15:46;;;;;;;13.70;7.20;;;;;;;25.05;39.32;95478.41;5033500;28;20176;-79
2022/10/31 09:18:13;;;;;;;15.50;7.20;;;;;;;24.94;39.92;95468.81;5032177;28;20167;-80
2022/10/31 09:20:40;;;;;;;13.18;7.28;;;;;;;24.82;40.35;95465.69;5032179;28;20255;-79
2022/10/31 09:23:09;;;;;;;10.80;6.13;;;;;;;24.67;40.74;95474.72;5032460;28;20163;-80
2022/10/31 09:25:35;;;;;;;15.93;6.80;;;;;;;24.52;40.84;95469.47;5040935;28;20167;-81
2022/10/31 09:28:03;;;;;;;15.85;7.60;;;;;;;24.33;42.66;95463.97;5044321;28;20708;-82
2022/10/31 09:30:31;;;;;;;14.95;7.10;;;;;;;24.29;41.44;95459.47;5038154;28;20172;-82
2022/10/31 09:32:58;;;;;;;15.65;6.72;;;;;;;24.03;41.41;95405.81;5015289;28;20175;-82
2022/10/31 09:35:24;;;;;;;12.80;6.78;;;;;;;23.99;41.35;95403.97;5032351;28;20254;-82
2022/10/31 09:37:56;;;;;;;10.52;5.45;;;;;;;24.41;40.83;95460.69;5031393;28;20179;-82
2022/10/31 09:40:29;;;;;;;12.55;5.03;;;;;;;24.08;40.46;95413.03;5030945;28;20647;-82
2022/10/31 09:43:00;;;;;;;13.43;6.00;;;;;;;24.16;41.39;95460.84;5030110;28;20225;-82
2022/10/31 09:45:46;;;;;;;11.20;5.35;;;;;;;24.07;42.17;95465.22;5030237;28;20211;-82
2022/10/31 09:48:18;;;;;;;8.10;4.70;;;;;;;23.78;40.75;95459.00;5045394;28;20176;-82
2022/10/31 09:50:50;;;;;;;7.68;3.80;;;;;;;23.18;41.73;95432.09;5030202;28;20581;-82
2022/10/31 09:53:27;;;;;;;6.53;4.13;;;;;;;22.76;41.68;95415.63;5030566;28;20175;-82
2022/10/31 09:55:54;;;;;;;12.40;6.53;;;;;;;22.72;44.21;95406.50;5030198;28;20183;-82
2022/10/31 09:58:24;;;;;;;17.63;6.32;;;;;;;22.80;43.78;95397.91;5030400;28;20241;-82
2022/10/31 10:00:51;;;;;;;12.93;5.72;;;;;;;23.00;43.96;95408.56;5030167;28;20241;-82
2022/10/31 10:03:19;;;;;;;9.77;5.72;;;;;;;23.40;43.32;95447.06;5030422;28;20175;-82
2022/10/31 10:06:17;;;;;;;15.63;6.35;;;;;;;23.43;43.42;95427.72;5030290;28;20202;-82
2022/10/31 10:08:42;;;;;;;8.20;3.70;;;;;;;22.98;43.00;95391.91;5039737;28;20191;-82
2022/10/31 10:11:10;;;;;;;10.40;4.53;;;;;;;23.26;43.38;95441.50;5032970;28;20186;-82
2022/10/31 10:14:02;;;;;;;13.77;5.05;;;;;;;22.95;42.91;95395.94;5032369;28;20179;-82
2022/10/31 10:16:33;;;;;;;8.20;4.20;;;;;;;23.18;43.18;95431.31;5031276;28;20198;-82
2022/10/31 10:18:58;;;;;;;8.10;4.40;;;;;;;23.12;43.44;95435.09;5031730;28;20195;-82
2022/10/31 10:21:50;;;;;;;9.63;3.78;;;;;;;23.00;42.78;95413.94;5050358;28;20563;-82
2022/10/31 10:24:45;;;;;;;7.72;3.20;;;;;;;22.63;41.79;95368.66;5049766;28;20734;-82
2022/10/31 10:27:42;;;;;;;9.68;3.90;;;;;;;22.86;42.40;95421.78;5049476;28;20182;-82
2022/10/31 10:30:39;;;;;;;6.05;2.80;;;;;;;22.49;41.87;95381.03;5045295;28;20248;-81
2022/10/31 10:33:10;;;;;;;9.50;2.97;;;;;;;22.47;43.10;95381.31;5025846;28;20574;-82
2022/10/31 10:35:47;;;;;;;5.82;3.90;;;;;;;22.68;42.87;95411.59;5045625;28;20179;-82
2022/10/31 10:38:37;;;;;;;10.80;3.45;;;;;;;22.74;43.88;95407.03;5030427;28;20167;-82
2022/10/31 10:41:14;;;;;;;7.53;3.20;;;;;;;22.67;43.66;95358.16;5030296;28;20174;-81
2022/10/31 10:43:39;;;;;;;13.38;3.35;;;;;;;22.90;43.02;95382.56;5032915;28;20326;-82
2022/10/31 10:49:26;;;;;;;7.78;2.90;;;;;;;23.19;41.51;95398.78;5051969;28;20572;-83
2022/10/31 10:52:27;;;;;;;7.07;2.80;;;;;;;23.11;43.62;95374.38;5033770;28;20187;-84
2022/10/31 10:55:06;;;;;;;8.32;3.00;;;;;;;23.24;43.01;95389.91;5031260;28;20155;-83
2022/10/31 10:57:44;;;;;;;9.95;3.75;;;;;;;23.15;41.29;95386.19;5017476;28;20175;-83
2022/10/31 11:00:29;;;;;;;5.40;3.30;;;;;;;23.15;41.57;95388.88;5041830;28;20267;-78
2022/10/31 11:02:55;;;;;;;7.78;3.15;;;;;;;23.08;42.00;95378.44;5021410;28;20273;-79
2022/10/31 11:05:25;;;;;;;7.05;3.90;;;;;;;22.92;42.26;95358.91;5050140;28;20680;-80
2022/10/31 11:07:51;;;;;;;5.30;3.33;;;;;;;22.92;41.87;95337.41;5042832;28;20177;-81
2022/10/31 11:10:17;;;;;;;16.58;3.83;;;;;;;23.31;42.10;95379.66;5033893;28;20180;-82
2022/10/31 11:12:56;;;;;;;5.85;3.00;;;;;;;23.33;42.18;95374.81;5031977;28;20152;-82
2022/10/31 11:15:24;;;;;;;4.65;2.88;;;;;;;23.07;41.47;95331.19;5034934;28;20155;-82
2022/10/31 11:17:52;;;;;;;7.22;3.88;;;;;;;23.28;40.69;95366.78;5033581;28;20229;-82
2022/10/31 11:20:17;;;;;;;8.00;3.58;;;;;;;23.26;41.81;95367.03;5032897;28;20241;-83
2022/10/31 11:22:46;;;;;;;6.55;3.30;;;;;;;23.25;42.42;95370.84;5052706;28;20183;-82
2022/10/31 11:25:21;;;;;;;9.80;4.63;;;;;;;23.16;41.95;95342.13;5038186;28;20265;-82
2022/10/31 11:27:58;;;;;;;10.48;4.72;;;;;;;22.87;42.13;95288.31;5033025;28;20241;-83
2022/10/31 11:30:23;;;;;;;10.13;3.67;;;;;;;23.40;41.42;95356.50;5032833;28;20186;-83
2022/10/31 11:32:52;;;;;;;8.82;3.60;;;;;;;23.39;41.81;95346.03;5051689;28;20646;-83
2022/10/31 11:35:20;;;;;;;8.13;3.88;;;;;;;23.58;41.49;95361.25;5052442;28;20593;-83
2022/10/31 11:37:48;;;;;;;10.88;3.22;;;;;;;23.60;40.62;95359.09;5052596;28;20654;-82
2022/10/31 11:40:22;;;;;;;6.03;3.17;;;;;;;23.24;41.30;95295.88;5052619;28;20175;-83